Time;durP1;ratioP1;P1;durP2;ratioP2;P2;SDS_P1;SDS_P2;PMS_P1;PMS_P2;Temp;Humidity;BMP_temperature;BMP_pressure;BME280_temperature;BME280_humidity;BME280_pressure;Samples;Min_cycle;Max_cycle;Signal;HPM_P1;HPM_P2
2023/06/09 00:00:18;;;;;;;7.10;4.57;;;;;;;;;;5062408;28;20033;-82
2023/06/09 00:02:50;;;;;;;5.22;4.50;;;;;;;;;;5058862;28;20094;-83
2023/06/09 00:05:17;;;;;;;8.10;5.03;;;;;;;;;;5030994;28;20042;-83
2023/06/09 00:07:45;;;;;;;6.97;4.85;;;;;;;;;;5048902;28;20038;-83
2023/06/09 00:10:10;;;;;;;7.60;5.22;;;;;;;;;;5030868;28;20033;-81
2023/06/09 00:12:36;;;;;;;6.50;5.00;;;;;;;;;;5048995;28;20109;-83
2023/06/09 00:15:02;;;;;;;6.77;4.80;;;;;;;;;;5015681;28;20030;-82
2023/06/09 00:17:28;;;;;;;7.20;5.10;;;;;;;;;;5057310;28;20444;-82
2023/06/09 00:20:01;;;;;;;5.45;4.75;;;;;;;;;;5036057;28;20120;-82
2023/06/09 00:22:26;;;;;;;5.25;4.45;;;;;;;;;;5049237;28;20029;-83
2023/06/09 00:24:52;;;;;;;6.85;5.30;;;;;;;;;;5034927;28;20482;-82
2023/06/09 00:27:17;;;;;;;6.85;5.18;;;;;;;;;;5060310;28;20044;-83
2023/06/09 00:29:43;;;;;;;6.90;5.10;;;;;;;;;;5056549;28;20045;-82
2023/06/09 00:32:11;;;;;;;6.85;5.03;;;;;;;;;;5053773;28;20033;-81
2023/06/09 00:34:37;;;;;;;7.15;4.65;;;;;;;;;;5031748;28;20036;-81
2023/06/09 00:37:03;;;;;;;6.20;5.10;;;;;;;;;;5046174;28;20041;-81
2023/06/09 00:39:28;;;;;;;5.88;4.85;;;;;;;;;;5045075;28;20025;-83
2023/06/09 00:41:54;;;;;;;7.18;4.90;;;;;;;;;;5035955;28;20037;-83
2023/06/09 00:44:19;;;;;;;6.45;4.85;;;;;;;;;;5052768;28;20053;-82
2023/06/09 00:46:45;;;;;;;6.47;4.97;;;;;;;;;;5032589;28;20064;-81
2023/06/09 00:49:11;;;;;;;7.30;5.35;;;;;;;;;;5028714;28;20112;-82
2023/06/09 00:51:37;;;;;;;6.72;5.13;;;;;;;;;;5044921;28;20052;-82
2023/06/09 00:54:04;;;;;;;7.00;5.32;;;;;;;;;;5044731;28;20029;-81
2023/06/09 00:56:34;;;;;;;7.15;5.10;;;;;;;;;;5027346;28;20033;-83
2023/06/09 00:59:01;;;;;;;6.25;5.03;;;;;;;;;;5027262;28;20029;-82
2023/06/09 01:01:28;;;;;;;7.43;4.63;;;;;;;;;;5026578;28;20040;-83
2023/06/09 01:03:54;;;;;;;6.40;5.05;;;;;;;;;;5059347;28;20037;-82
2023/06/09 01:06:30;;;;;;;5.50;4.60;;;;;;;;;;5040830;28;20033;-81
2023/06/09 01:09:10;;;;;;;5.35;4.50;;;;;;;;;;5035995;28;20068;-81
2023/06/09 01:11:53;;;;;;;6.90;5.30;;;;;;;;;;5030556;28;20033;-81
2023/06/09 01:14:36;;;;;;;5.67;4.67;;;;;;;;;;5044662;28;20051;-82
2023/06/09 01:17:08;;;;;;;8.70;5.05;;;;;;;;;;5026349;28;20360;-82
2023/06/09 01:19:45;;;;;;;5.60;4.63;;;;;;;;;;5047679;28;20029;-82
2023/06/09 01:22:17;;;;;;;6.88;5.38;;;;;;;;;;5026630;28;20397;-82
2023/06/09 01:25:20;;;;;;;7.07;4.70;;;;;;;;;;5029369;28;20033;-81
2023/06/09 01:27:49;;;;;;;7.00;4.73;;;;;;;;;;5046515;28;20442;-82
2023/06/09 01:30:16;;;;;;;6.15;4.35;;;;;;;;;;5046325;28;20045;-83
2023/06/09 01:32:43;;;;;;;5.53;4.78;;;;;;;;;;5047170;28;20040;-82
2023/06/09 01:35:09;;;;;;;5.53;4.47;;;;;;;;;;5046859;28;20063;-82
2023/06/09 01:37:35;;;;;;;6.13;5.07;;;;;;;;;;5047632;28;20052;-81
2023/06/09 01:40:01;;;;;;;6.68;4.88;;;;;;;;;;5029700;28;20439;-83
2023/06/09 01:42:26;;;;;;;5.07;4.57;;;;;;;;;;5013384;28;20041;-83
2023/06/09 01:44:52;;;;;;;7.25;4.80;;;;;;;;;;5046829;28;20037;-83
2023/06/09 01:47:21;;;;;;;6.38;4.75;;;;;;;;;;5029560;28;20052;-83
2023/06/09 01:49:56;;;;;;;5.97;4.80;;;;;;;;;;5023654;28;20029;-83
2023/06/09 01:52:33;;;;;;;6.50;4.97;;;;;;;;;;5062077;28;20087;-83
2023/06/09 01:55:02;;;;;;;6.82;4.90;;;;;;;;;;5046076;28;20105;-83
2023/06/09 01:57:37;;;;;;;6.35;4.75;;;;;;;;;;5029150;28;20069;-83
2023/06/09 02:00:05;;;;;;;6.05;4.75;;;;;;;;;;5016631;28;20029;-83
2023/06/09 02:02:41;;;;;;;6.68;5.07;;;;;;;;;;5027772;28;20042;-83
2023/06/09 02:05:08;;;;;;;5.75;4.80;;;;;;;;;;5038911;28;20044;-83
2023/06/09 02:07:34;;;;;;;6.82;4.68;;;;;;;;;;5044549;28;20060;-83
2023/06/09 02:10:02;;;;;;;5.53;4.55;;;;;;;;;;5025462;28;20038;-82
2023/06/09 02:12:32;;;;;;;6.28;5.03;;;;;;;;;;5028725;28;20093;-82
2023/06/09 02:14:58;;;;;;;6.90;4.97;;;;;;;;;;5033649;28;20041;-82
2023/06/09 02:17:23;;;;;;;6.40;4.60;;;;;;;;;;5033068;28;20029;-83
2023/06/09 02:19:49;;;;;;;13.07;5.00;;;;;;;;;;5030308;28;20036;-83
2023/06/09 02:22:14;;;;;;;5.68;4.47;;;;;;;;;;5028659;28;20041;-84
2023/06/09 02:24:50;;;;;;;6.80;5.15;;;;;;;;;;5046259;28;20045;-83
2023/06/09 02:27:16;;;;;;;7.40;5.40;;;;;;;;;;5020400;28;20029;-83
2023/06/09 02:29:41;;;;;;;8.90;5.25;;;;;;;;;;5025128;28;20122;-83
2023/06/09 02:32:07;;;;;;;9.07;5.45;;;;;;;;;;5045450;28;20096;-83
2023/06/09 02:34:33;;;;;;;5.90;4.65;;;;;;;;;;5030281;28;20047;-83
2023/06/09 02:36:59;;;;;;;6.03;5.10;;;;;;;;;;5028638;28;20041;-83
2023/06/09 02:39:24;;;;;;;9.07;5.22;;;;;;;;;;5028713;28;20041;-83
2023/06/09 02:41:50;;;;;;;8.00;5.22;;;;;;;;;;5039748;28;20037;-82
2023/06/09 02:44:16;;;;;;;8.30;5.22;;;;;;;;;;5039275;28;20040;-83
2023/06/09 02:46:43;;;;;;;7.45;5.13;;;;;;;;;;5037052;28;20034;-82
2023/06/09 02:49:09;;;;;;;8.70;5.65;;;;;;;;;;5050682;28;20035;-82
2023/06/09 02:51:36;;;;;;;7.88;5.50;;;;;;;;;;5030739;28;20103;-82
2023/06/09 02:54:03;;;;;;;10.02;5.55;;;;;;;;;;5035564;28;20062;-82
2023/06/09 02:56:30;;;;;;;6.88;5.30;;;;;;;;;;5044230;28;20029;-82
2023/06/09 02:58:57;;;;;;;6.63;5.03;;;;;;;;;;5041421;28;20064;-83
2023/06/09 03:01:23;;;;;;;6.28;5.30;;;;;;;;;;5038393;28;20048;-82
2023/06/09 03:03:49;;;;;;;6.88;5.38;;;;;;;;;;5018873;28;20025;-82
2023/06/09 03:06:16;;;;;;;6.65;5.22;;;;;;;;;;5046481;28;20105;-83
2023/06/09 03:08:43;;;;;;;5.80;5.00;;;;;;;;;;5024502;28;20076;-82
2023/06/09 03:11:10;;;;;;;6.25;5.13;;;;;;;;;;5028854;28;20042;-82
2023/06/09 03:13:36;;;;;;;7.82;5.20;;;;;;;;;;5027908;28;20075;-82
2023/06/09 03:16:03;;;;;;;9.18;5.05;;;;;;;;;;5019959;28;20059;-82
2023/06/09 03:18:29;;;;;;;5.65;4.43;;;;;;;;;;5034148;28;20049;-82
2023/06/09 03:20:55;;;;;;;7.32;5.00;;;;;;;;;;5034866;28;20037;-82
2023/06/09 03:23:22;;;;;;;6.68;4.82;;;;;;;;;;5030928;28;20042;-82
2023/06/09 03:25:51;;;;;;;7.60;5.10;;;;;;;;;;5032085;28;20633;-82
2023/06/09 03:28:18;;;;;;;5.53;4.75;;;;;;;;;;5061719;28;20583;-82
2023/06/09 03:30:44;;;;;;;8.25;5.30;;;;;;;;;;5042129;28;20041;-82
2023/06/09 03:33:14;;;;;;;5.90;4.65;;;;;;;;;;5038710;28;20036;-82
2023/06/09 03:35:43;;;;;;;8.05;4.97;;;;;;;;;;5034932;28;20037;-82
2023/06/09 03:38:08;;;;;;;8.45;4.90;;;;;;;;;;5016303;28;20023;-82
2023/06/09 03:40:36;;;;;;;6.28;5.15;;;;;;;;;;5013356;28;20025;-83
2023/06/09 03:43:02;;;;;;;9.50;5.75;;;;;;;;;;5027425;28;20034;-82
2023/06/09 03:45:28;;;;;;;6.13;5.20;;;;;;;;;;5012814;28;20040;-82
2023/06/09 03:47:54;;;;;;;6.40;5.18;;;;;;;;;;5042440;28;20111;-82
2023/06/09 03:50:21;;;;;;;6.70;5.13;;;;;;;;;;5040636;28;20033;-82
2023/06/09 03:52:47;;;;;;;9.10;5.53;;;;;;;;;;5037718;28;20041;-82
2023/06/09 03:55:13;;;;;;;6.15;4.88;;;;;;;;;;5033954;28;20037;-82
2023/06/09 03:57:39;;;;;;;10.57;4.70;;;;;;;;;;5031653;28;20033;-82
2023/06/09 04:00:07;;;;;;;6.65;5.28;;;;;;;;;;5043876;28;20047;-83
2023/06/09 04:02:42;;;;;;;6.97;5.45;;;;;;;;;;5045376;28;20045;-82
2023/06/09 04:05:08;;;;;;;8.18;5.43;;;;;;;;;;5029891;28;20028;-81
2023/06/09 04:07:34;;;;;;;7.53;4.90;;;;;;;;;;5037191;28;20060;-81
2023/06/09 04:10:00;;;;;;;9.80;5.35;;;;;;;;;;5036340;28;20423;-81
2023/06/09 04:12:26;;;;;;;9.27;5.60;;;;;;;;;;5033373;28;20033;-82
2023/06/09 04:14:52;;;;;;;7.13;5.18;;;;;;;;;;5028538;28;20076;-82
2023/06/09 04:17:18;;;;;;;9.15;5.25;;;;;;;;;;5047394;28;20081;-82
2023/06/09 04:19:44;;;;;;;9.32;5.57;;;;;;;;;;5030226;28;20121;-82
2023/06/09 04:22:10;;;;;;;6.90;5.43;;;;;;;;;;5037629;28;20029;-82
2023/06/09 04:24:36;;;;;;;7.53;5.82;;;;;;;;;;5034673;28;20033;-82
2023/06/09 04:27:03;;;;;;;6.93;5.50;;;;;;;;;;5034956;28;20112;-82
2023/06/09 04:29:33;;;;;;;7.45;5.88;;;;;;;;;;5031854;28;20029;-81
2023/06/09 04:31:59;;;;;;;8.80;5.60;;;;;;;;;;5013514;28;20565;-82
2023/06/09 04:34:26;;;;;;;8.07;5.43;;;;;;;;;;5029175;28;20040;-81
2023/06/09 04:36:59;;;;;;;6.55;5.15;;;;;;;;;;5043143;28;20033;-82
2023/06/09 04:39:29;;;;;;;7.25;5.22;;;;;;;;;;5038791;28;20037;-82
2023/06/09 04:41:55;;;;;;;7.93;5.28;;;;;;;;;;5020969;28;20503;-82
2023/06/09 04:44:23;;;;;;;8.00;5.30;;;;;;;;;;5051106;28;20131;-82
2023/06/09 04:46:51;;;;;;;7.00;5.30;;;;;;;;;;5014886;28;20526;-82
2023/06/09 04:49:17;;;;;;;7.40;5.53;;;;;;;;;;5042308;28;20029;-82
2023/06/09 04:51:48;;;;;;;8.18;5.38;;;;;;;;;;5044367;28;20032;-82
2023/06/09 04:54:20;;;;;;;6.63;5.30;;;;;;;;;;5028269;28;20538;-82
2023/06/09 04:56:52;;;;;;;6.30;5.38;;;;;;;;;;5021879;28;20048;-81
2023/06/09 04:59:19;;;;;;;6.40;5.03;;;;;;;;;;5020253;28;20064;-81
2023/06/09 05:01:46;;;;;;;10.50;5.20;;;;;;;;;;5032698;28;20093;-82
2023/06/09 05:04:13;;;;;;;8.30;5.63;;;;;;;;;;5028951;28;20038;-82
2023/06/09 05:06:42;;;;;;;9.93;5.57;;;;;;;;;;5047826;28;20026;-82
2023/06/09 05:09:08;;;;;;;8.07;5.50;;;;;;;;;;5040055;28;20095;-82
2023/06/09 05:11:34;;;;;;;8.05;5.88;;;;;;;;;;5040672;28;20531;-82
2023/06/09 05:14:01;;;;;;;8.90;5.53;;;;;;;;;;5037545;28;20037;-81
2023/06/09 05:16:28;;;;;;;8.23;5.50;;;;;;;;;;5018371;28;20038;-82
2023/06/09 05:18:55;;;;;;;6.80;5.43;;;;;;;;;;5031497;28;20040;-81
2023/06/09 05:21:21;;;;;;;6.25;5.00;;;;;;;;;;5029043;28;20108;-82
2023/06/09 05:23:48;;;;;;;12.77;5.35;;;;;;;;;;5044177;28;20044;-81
2023/06/09 05:26:13;;;;;;;7.28;5.47;;;;;;;;;;5042196;28;20041;-82
2023/06/09 05:28:39;;;;;;;7.45;5.43;;;;;;;;;;5039194;28;20135;-81
2023/06/09 05:31:04;;;;;;;9.82;5.63;;;;;;;;;;5019557;28;20092;-82
2023/06/09 05:33:31;;;;;;;7.30;5.60;;;;;;;;;;5033615;28;20449;-81
2023/06/09 05:35:58;;;;;;;7.63;5.65;;;;;;;;;;5029870;28;20029;-81
2023/06/09 05:38:25;;;;;;;7.60;5.57;;;;;;;;;;5028525;28;20539;-82
2023/06/09 05:40:54;;;;;;;8.63;5.70;;;;;;;;;;5028573;28;20063;-81
2023/06/09 05:43:19;;;;;;;8.57;5.93;;;;;;;;;;5057097;28;20043;-82
2023/06/09 05:45:45;;;;;;;10.98;5.75;;;;;;;;;;5038441;28;20029;-82
2023/06/09 05:48:11;;;;;;;8.02;5.80;;;;;;;;;;5052429;28;20137;-81
2023/06/09 05:50:37;;;;;;;10.77;5.90;;;;;;;;;;5049014;28;20044;-82
2023/06/09 05:53:03;;;;;;;7.10;5.80;;;;;;;;;;5047026;28;20345;-83
2023/06/09 05:55:29;;;;;;;7.70;5.72;;;;;;;;;;5046662;28;20130;-81
2023/06/09 05:57:54;;;;;;;7.55;5.88;;;;;;;;;;5028845;28;20046;-82
2023/06/09 06:00:20;;;;;;;7.72;5.40;;;;;;;;;;5029089;28;20052;-82
2023/06/09 06:02:46;;;;;;;7.07;5.25;;;;;;;;;;5047117;28;20071;-82
2023/06/09 06:05:12;;;;;;;8.45;5.43;;;;;;;;;;5033628;28;20034;-83
2023/06/09 06:07:38;;;;;;;9.13;5.50;;;;;;;;;;5032372;28;20045;-83
2023/06/09 06:10:05;;;;;;;9.32;5.53;;;;;;;;;;5047111;28;20049;-84
2023/06/09 06:12:34;;;;;;;9.85;5.32;;;;;;;;;;5043856;28;20040;-84
2023/06/09 06:14:59;;;;;;;6.78;5.38;;;;;;;;;;5028952;28;20037;-83
2023/06/09 06:17:25;;;;;;;10.63;5.47;;;;;;;;;;5046744;28;20056;-84
2023/06/09 06:19:51;;;;;;;9.38;4.93;;;;;;;;;;5046824;28;20041;-83
2023/06/09 06:22:16;;;;;;;6.47;5.18;;;;;;;;;;5046425;28;20091;-84
2023/06/09 06:24:42;;;;;;;7.53;5.25;;;;;;;;;;5028620;28;20064;-83
2023/06/09 06:27:08;;;;;;;9.23;5.57;;;;;;;;;;5044957;28;20048;-83
2023/06/09 06:29:33;;;;;;;6.90;5.38;;;;;;;;;;5063456;28;20041;-83
2023/06/09 06:32:00;;;;;;;6.35;4.85;;;;;;;;;;5041988;28;20048;-84
2023/06/09 06:34:26;;;;;;;7.80;5.72;;;;;;;;;;5055811;28;20097;-83
2023/06/09 06:36:53;;;;;;;7.72;5.55;;;;;;;;;;5053817;28;20033;-83
2023/06/09 06:39:20;;;;;;;8.07;5.22;;;;;;;;;;5050097;28;20063;-85
2023/06/09 06:41:45;;;;;;;7.68;5.53;;;;;;;;;;5029521;28;20037;-84
2023/06/09 06:44:11;;;;;;;7.32;5.10;;;;;;;;;;5043984;28;20045;-82
2023/06/09 06:46:36;;;;;;;8.02;5.20;;;;;;;;;;5044446;28;20112;-82
2023/06/09 06:49:02;;;;;;;5.03;4.45;;;;;;;;;;5044264;28;20053;-82
2023/06/09 06:51:27;;;;;;;6.10;4.97;;;;;;;;;;5043769;28;20527;-82
2023/06/09 06:53:53;;;;;;;7.65;5.47;;;;;;;;;;5042337;28;20030;-82
2023/06/09 06:56:18;;;;;;;5.75;5.15;;;;;;;;;;5027833;28;20063;-83
2023/06/09 06:58:44;;;;;;;5.90;5.28;;;;;;;;;;5026825;28;20072;-82
2023/06/09 07:01:09;;;;;;;5.85;4.85;;;;;;;;;;5044368;28;20124;-82
2023/06/09 07:03:35;;;;;;;7.18;5.13;;;;;;;;;;5020021;28;20114;-82
2023/06/09 07:06:01;;;;;;;9.68;4.82;;;;;;;;;;5054596;28;20097;-82
2023/06/09 07:08:27;;;;;;;6.72;4.72;;;;;;;;;;5052092;28;20038;-83
2023/06/09 07:10:52;;;;;;;6.28;5.18;;;;;;;;;;5048270;28;20092;-83
2023/06/09 07:13:18;;;;;;;8.15;5.22;;;;;;;;;;5043449;28;20124;-82
2023/06/09 07:15:43;;;;;;;6.20;5.10;;;;;;;;;;5040400;28;20037;-80
2023/06/09 07:18:09;;;;;;;5.97;4.93;;;;;;;;;;5039542;28;20532;-83
2023/06/09 07:20:35;;;;;;;7.78;5.57;;;;;;;;;;5048482;28;20096;-82
2023/06/09 07:23:00;;;;;;;8.02;5.45;;;;;;;;;;5030604;28;20048;-82
2023/06/09 07:25:27;;;;;;;7.15;5.53;;;;;;;;;;5035778;28;20068;-82
2023/06/09 07:27:52;;;;;;;9.52;5.45;;;;;;;;;;5035067;28;20493;-81
2023/06/09 07:30:18;;;;;;;6.93;5.85;;;;;;;;;;5032609;28;20052;-82
2023/06/09 07:32:43;;;;;;;10.07;5.60;;;;;;;;;;5041791;28;20028;-82
2023/06/09 07:35:12;;;;;;;6.20;5.47;;;;;;;;;;5062389;28;20041;-81
2023/06/09 07:37:42;;;;;;;6.07;5.18;;;;;;;;;;5043991;28;20041;-82
2023/06/09 07:40:09;;;;;;;9.75;6.00;;;;;;;;;;5057585;28;20036;-81
2023/06/09 07:42:35;;;;;;;6.88;5.57;;;;;;;;;;5046156;28;20044;-82
2023/06/09 07:45:01;;;;;;;6.70;5.70;;;;;;;;;;5029892;28;20037;-82
2023/06/09 07:47:26;;;;;;;7.32;5.78;;;;;;;;;;5053770;28;20047;-82
2023/06/09 07:49:52;;;;;;;9.13;5.38;;;;;;;;;;5046567;28;20164;-82
2023/06/09 07:52:17;;;;;;;7.68;5.38;;;;;;;;;;5061141;28;20041;-83
2023/06/09 07:54:43;;;;;;;6.25;5.30;;;;;;;;;;5039507;28;20048;-81
2023/06/09 07:57:08;;;;;;;5.78;4.57;;;;;;;;;;5049289;28;20033;-81
2023/06/09 07:59:34;;;;;;;7.15;5.32;;;;;;;;;;5029250;28;20030;-82
2023/06/09 08:01:59;;;;;;;6.63;5.05;;;;;;;;;;5047337;28;20491;-82
2023/06/09 08:04:26;;;;;;;6.18;4.90;;;;;;;;;;5010749;28;20083;-82
2023/06/09 08:06:51;;;;;;;7.15;5.43;;;;;;;;;;5027284;28;20060;-82
2023/06/09 08:09:17;;;;;;;5.82;5.22;;;;;;;;;;5045251;28;20435;-82
2023/06/09 08:11:42;;;;;;;8.20;5.43;;;;;;;;;;5029763;28;20033;-82
2023/06/09 08:14:08;;;;;;;6.18;5.20;;;;;;;;;;5030534;28;20399;-82
2023/06/09 08:16:34;;;;;;;5.38;4.72;;;;;;;;;;5043843;28;20457;-81
2023/06/09 08:18:59;;;;;;;6.75;5.13;;;;;;;;;;5038158;28;20052;-80
2023/06/09 08:21:25;;;;;;;8.15;5.50;;;;;;;;;;5064669;28;20029;-82
2023/06/09 08:23:50;;;;;;;7.70;5.97;;;;;;;;;;5045778;28;20033;-82
2023/06/09 08:26:16;;;;;;;6.43;5.70;;;;;;;;;;5060895;28;20085;-82
2023/06/09 08:28:41;;;;;;;10.38;6.20;;;;;;;;;;5058629;28;20076;-82
2023/06/09 08:31:08;;;;;;;6.63;5.68;;;;;;;;;;5055109;28;20037;-82
2023/06/09 08:33:36;;;;;;;11.20;5.95;;;;;;;;;;5052489;28;20098;-82
2023/06/09 08:36:04;;;;;;;8.05;5.90;;;;;;;;;;5048733;28;20037;-82
2023/06/09 08:38:34;;;;;;;7.68;5.50;;;;;;;;;;5047793;28;20094;-81
2023/06/09 08:41:10;;;;;;;7.28;5.47;;;;;;;;;;5029465;28;20064;-83
2023/06/09 08:43:36;;;;;;;5.95;5.35;;;;;;;;;;5020774;28;20045;-81
2023/06/09 08:46:06;;;;;;;5.32;4.70;;;;;;;;;;5039237;28;20038;-82
2023/06/09 08:48:33;;;;;;;12.13;5.22;;;;;;;;;;5041636;28;20040;-82
2023/06/09 08:50:58;;;;;;;5.72;5.07;;;;;;;;;;5045486;28;20090;-83
2023/06/09 08:53:25;;;;;;;5.38;4.70;;;;;;;;;;5047834;28;20479;-83
2023/06/09 08:55:52;;;;;;;5.72;4.95;;;;;;;;;;5036158;28;20033;-81
2023/06/09 08:58:18;;;;;;;6.00;4.70;;;;;;;;;;5052005;28;20041;-82
2023/06/09 09:00:43;;;;;;;9.73;4.90;;;;;;;;;;5028576;28;20036;-82
2023/06/09 09:03:09;;;;;;;7.03;4.45;;;;;;;;;;5046359;28;20037;-83
2023/06/09 09:05:35;;;;;;;11.18;4.40;;;;;;;;;;5024966;28;20380;-83
2023/06/09 09:08:00;;;;;;;5.00;4.00;;;;;;;;;;5040762;28;20040;-82
2023/06/09 09:10:27;;;;;;;5.85;3.95;;;;;;;;;;5036262;28;20029;-82
2023/06/09 09:12:58;;;;;;;4.82;4.00;;;;;;;;;;5037118;28;20689;-81
2023/06/09 09:15:25;;;;;;;4.43;3.90;;;;;;;;;;5046420;28;20445;-81
2023/06/09 09:17:51;;;;;;;5.05;3.38;;;;;;;;;;5048068;28;20029;-81
2023/06/09 09:20:17;;;;;;;5.15;3.80;;;;;;;;;;5049650;28;20041;-80
2023/06/09 09:22:50;;;;;;;5.10;3.40;;;;;;;;;;5046052;28;20037;-82
2023/06/09 09:25:23;;;;;;;3.90;3.40;;;;;;;;;;5045480;28;20063;-82
2023/06/09 09:27:58;;;;;;;7.45;3.50;;;;;;;;;;5024632;28;20037;-83
2023/06/09 09:30:46;;;;;;;5.35;3.55;;;;;;;;;;5052327;28;20570;-83
2023/06/09 09:33:21;;;;;;;3.75;3.13;;;;;;;;;;5031019;28;20064;-83
2023/06/09 09:35:49;;;;;;;4.95;3.20;;;;;;;;;;5022688;28;20060;-83
2023/06/09 09:38:17;;;;;;;3.33;2.80;;;;;;;;;;5041778;28;20041;-84
2023/06/09 09:40:45;;;;;;;5.30;3.42;;;;;;;;;;5040642;28;20034;-84
2023/06/09 09:43:11;;;;;;;6.00;3.40;;;;;;;;;;5020730;28;20043;-84
2023/06/09 09:45:39;;;;;;;7.20;3.92;;;;;;;;;;5051286;28;20033;-83
2023/06/09 09:48:11;;;;;;;4.30;3.60;;;;;;;;;;5046558;28;20033;-83
2023/06/09 09:50:38;;;;;;;10.35;3.85;;;;;;;;;;5044388;28;20048;-85
2023/06/09 09:53:07;;;;;;;5.85;3.67;;;;;;;;;;5022494;28;20553;-84
2023/06/09 09:55:42;;;;;;;5.10;3.85;;;;;;;;;;5037915;28;20026;-83
2023/06/09 09:58:09;;;;;;;4.93;3.95;;;;;;;;;;5021334;28;20068;-84
2023/06/09 10:00:37;;;;;;;4.53;3.67;;;;;;;;;;5004304;28;20041;-84
2023/06/09 10:03:08;;;;;;;4.97;3.50;;;;;;;;;;5045701;28;20041;-84
2023/06/09 10:05:36;;;;;;;5.35;3.75;;;;;;;;;;5014048;28;20037;-83
2023/06/09 10:08:03;;;;;;;4.20;3.58;;;;;;;;;;5020073;28;20028;-84
2023/06/09 10:10:30;;;;;;;4.68;3.60;;;;;;;;;;5021845;28;20038;-83
2023/06/09 10:12:57;;;;;;;6.97;3.95;;;;;;;;;;5041495;28;20044;-84
2023/06/09 10:15:23;;;;;;;5.10;3.58;;;;;;;;;;5056209;28;20493;-83
2023/06/09 10:17:55;;;;;;;4.55;3.38;;;;;;;;;;5035115;28;20045;-83
2023/06/09 10:20:21;;;;;;;3.47;2.92;;;;;;;;;;5032033;28;20040;-82
2023/06/09 10:22:48;;;;;;;5.18;3.38;;;;;;;;;;5046492;28;20546;-84
2023/06/09 10:25:13;;;;;;;5.95;3.35;;;;;;;;;;5025253;28;20037;-84
2023/06/09 10:27:39;;;;;;;4.30;3.30;;;;;;;;;;5040822;28;20037;-84
2023/06/09 10:30:07;;;;;;;5.15;3.30;;;;;;;;;;5037705;28;20068;-84
2023/06/09 10:32:38;;;;;;;7.35;2.97;;;;;;;;;;5020425;28;20176;-84
2023/06/09 10:35:05;;;;;;;3.38;2.70;;;;;;;;;;5020855;28;20046;-84
2023/06/09 10:37:34;;;;;;;5.30;2.88;;;;;;;;;;5027889;28;20036;-84
2023/06/09 10:40:16;;;;;;;4.68;2.85;;;;;;;;;;5019533;28;20438;-83
2023/06/09 10:43:12;;;;;;;3.78;2.60;;;;;;;;;;5039109;28;20052;-83
2023/06/09 10:45:52;;;;;;;4.70;2.40;;;;;;;;;;5012872;28;20105;-84
2023/06/09 10:48:45;;;;;;;5.43;2.88;;;;;;;;;;5033844;28;20179;-85
2023/06/09 10:51:29;;;;;;;3.95;2.70;;;;;;;;;;5027886;28;20049;-83
2023/06/09 10:54:10;;;;;;;4.38;2.80;;;;;;;;;;5025745;28;20124;-85
2023/06/09 10:56:40;;;;;;;3.65;2.88;;;;;;;;;;5044577;28;20036;-85
2023/06/09 10:59:29;;;;;;;2.63;2.40;;;;;;;;;;5024541;28;20136;-85
2023/06/09 11:02:04;;;;;;;3.83;2.85;;;;;;;;;;5038556;28;20487;-85
2023/06/09 11:04:44;;;;;;;4.28;2.80;;;;;;;;;;5020319;28;20037;-85
2023/06/09 11:07:18;;;;;;;4.50;2.90;;;;;;;;;;5035709;28;20025;-85
2023/06/09 11:09:47;;;;;;;4.47;3.00;;;;;;;;;;5037366;28;20029;-84
2023/06/09 11:12:39;;;;;;;3.95;2.60;;;;;;;;;;5036351;28;20605;-85
2023/06/09 11:15:06;;;;;;;3.67;2.92;;;;;;;;;;5015676;28;20124;-85
2023/06/09 11:17:36;;;;;;;3.10;2.80;;;;;;;;;;5051736;28;20036;-84
2023/06/09 11:20:20;;;;;;;3.35;2.60;;;;;;;;;;5030504;28;20029;-85
2023/06/09 11:22:48;;;;;;;3.50;2.83;;;;;;;;;;5032534;28;20033;-86
2023/06/09 11:25:17;;;;;;;4.03;2.80;;;;;;;;;;5047287;28;20476;-85
2023/06/09 11:27:47;;;;;;;3.20;2.55;;;;;;;;;;5041975;28;20047;-85
2023/06/09 11:30:18;;;;;;;3.70;2.53;;;;;;;;;;5007374;28;20963;-85
2023/06/09 11:32:47;;;;;;;3.22;2.63;;;;;;;;;;5037857;28;20060;-84
2023/06/09 11:35:59;;;;;;;3.50;2.50;;;;;;;;;;5007123;28;20060;-84
2023/06/09 11:38:19;;;;;;;;;;;;;;;;;;5017394;28;20068;-85
2023/06/09 11:40:52;;;;;;;2.95;2.65;;;;;;;;;;5050762;28;19915;-86
2023/06/09 11:43:19;;;;;;;3.37;2.70;;;;;;;;;;5039721;28;20429;-85
2023/06/09 11:45:45;;;;;;;5.78;2.45;;;;;;;;;;5017399;28;20358;-84
2023/06/09 11:48:11;;;;;;;6.32;2.60;;;;;;;;;;5047523;28;20385;-84
2023/06/09 11:50:39;;;;;;;3.10;2.50;;;;;;;;;;5042341;28;20030;-84
2023/06/09 11:53:07;;;;;;;3.45;2.53;;;;;;;;;;5022525;28;20029;-85
2023/06/09 11:55:33;;;;;;;3.03;2.55;;;;;;;;;;5022968;28;20095;-84
2023/06/09 11:57:59;;;;;;;3.92;2.50;;;;;;;;;;5020788;28;20029;-84
2023/06/09 12:00:26;;;;;;;3.28;2.35;;;;;;;;;;5024505;28;20486;-84
2023/06/09 12:02:53;;;;;;;4.03;2.50;;;;;;;;;;5039738;28;20045;-84
2023/06/09 12:05:19;;;;;;;4.97;2.45;;;;;;;;;;5020761;28;20102;-84
2023/06/09 12:07:46;;;;;;;5.50;2.75;;;;;;;;;;5043414;28;20475;-86
2023/06/09 12:10:20;;;;;;;3.65;2.90;;;;;;;;;;5021726;28;20045;-84
2023/06/09 12:12:47;;;;;;;4.57;2.60;;;;;;;;;;5048687;28;20044;-83
2023/06/09 12:15:15;;;;;;;4.18;2.70;;;;;;;;;;5035915;28;20033;-85
2023/06/09 12:17:41;;;;;;;3.42;2.70;;;;;;;;;;5036124;28;20048;-83
2023/06/09 12:20:27;;;;;;;4.40;2.67;;;;;;;;;;5035102;28;20045;-84
2023/06/09 12:22:54;;;;;;;3.22;2.40;;;;;;;;;;5030724;28;20033;-84
2023/06/09 12:25:30;;;;;;;3.40;2.80;;;;;;;;;;5052025;28;20475;-82
2023/06/09 12:27:58;;;;;;;3.13;2.58;;;;;;;;;;5015361;28;20535;-83
2023/06/09 12:30:38;;;;;;;3.17;2.80;;;;;;;;;;5017673;28;20045;-84
2023/06/09 12:33:09;;;;;;;3.90;2.70;;;;;;;;;;5034058;28;20072;-85
2023/06/09 12:35:49;;;;;;;6.40;3.10;;;;;;;;;;5038430;28;20503;-83
2023/06/09 12:38:18;;;;;;;3.20;2.40;;;;;;;;;;5034935;28;20455;-84
2023/06/09 12:40:47;;;;;;;4.15;2.53;;;;;;;;;;5036083;28;20045;-84
2023/06/09 12:43:15;;;;;;;4.45;2.85;;;;;;;;;;5016861;28;20475;-83
2023/06/09 12:45:42;;;;;;;3.47;2.53;;;;;;;;;;5036657;28;20033;-85
2023/06/09 12:48:08;;;;;;;3.13;2.70;;;;;;;;;;5019811;28;20163;-85
2023/06/09 12:50:34;;;;;;;6.97;2.92;;;;;;;;;;5036821;28;20037;-85
2023/06/09 12:53:00;;;;;;;4.82;2.47;;;;;;;;;;5035793;28;20068;-83
2023/06/09 12:55:25;;;;;;;4.28;2.40;;;;;;;;;;5046314;28;20095;-81
2023/06/09 12:57:51;;;;;;;3.45;2.50;;;;;;;;;;5049267;28;20029;-80
2023/06/09 13:00:16;;;;;;;4.03;2.50;;;;;;;;;;5046898;28;20067;-81
2023/06/09 13:02:43;;;;;;;3.85;2.47;;;;;;;;;;5044072;28;20037;-81
2023/06/09 13:05:09;;;;;;;3.53;2.40;;;;;;;;;;5029445;28;20093;-84
2023/06/09 13:07:35;;;;;;;3.35;2.53;;;;;;;;;;5005982;28;20025;-83
2023/06/09 13:10:00;;;;;;;3.28;2.30;;;;;;;;;;5039342;28;20060;-83
2023/06/09 13:12:26;;;;;;;7.88;2.30;;;;;;;;;;5016140;28;20057;-83
2023/06/09 13:14:51;;;;;;;4.13;2.40;;;;;;;;;;5037654;28;20037;-83
2023/06/09 13:17:17;;;;;;;3.20;2.40;;;;;;;;;;5037893;28;20045;-84
2023/06/09 13:19:42;;;;;;;3.88;2.35;;;;;;;;;;5038692;28;20045;-84
2023/06/09 13:22:08;;;;;;;4.20;2.53;;;;;;;;;;5039581;28;20056;-82
2023/06/09 13:24:33;;;;;;;4.45;2.60;;;;;;;;;;5036810;28;20038;-84
2023/06/09 13:26:59;;;;;;;4.90;2.70;;;;;;;;;;5042575;28;20041;-83
2023/06/09 13:29:24;;;;;;;3.88;2.40;;;;;;;;;;5037234;28;20410;-84
2023/06/09 13:31:50;;;;;;;3.55;2.53;;;;;;;;;;5033165;28;20033;-83
2023/06/09 13:34:15;;;;;;;3.85;2.60;;;;;;;;;;5043317;28;20525;-84
2023/06/09 13:36:41;;;;;;;3.20;2.50;;;;;;;;;;5031615;28;20037;-84
2023/06/09 13:39:07;;;;;;;3.70;2.78;;;;;;;;;;5037420;28;20040;-83
2023/06/09 13:41:32;;;;;;;3.35;2.60;;;;;;;;;;5024839;28;20123;-84
2023/06/09 13:43:59;;;;;;;5.93;2.78;;;;;;;;;;5051190;28;20040;-84
2023/06/09 13:46:25;;;;;;;6.85;2.90;;;;;;;;;;5054826;28;20039;-83
2023/06/09 13:48:51;;;;;;;3.70;2.80;;;;;;;;;;5021526;28;20075;-84
2023/06/09 13:51:16;;;;;;;4.00;2.80;;;;;;;;;;5032703;28;20036;-84
2023/06/09 13:53:42;;;;;;;4.65;3.00;;;;;;;;;;5033865;28;20041;-84
2023/06/09 13:56:07;;;;;;;7.35;2.88;;;;;;;;;;5044369;28;20083;-82
2023/06/09 13:58:33;;;;;;;3.25;2.80;;;;;;;;;;5041182;28;20037;-83
2023/06/09 14:00:58;;;;;;;3.53;2.80;;;;;;;;;;5026617;28;20041;-84
2023/06/09 14:03:24;;;;;;;4.05;2.70;;;;;;;;;;5025734;28;20038;-84
2023/06/09 14:05:49;;;;;;;4.88;2.70;;;;;;;;;;5038067;28;20049;-85
2023/06/09 14:08:15;;;;;;;3.08;2.50;;;;;;;;;;5051539;28;20040;-84
2023/06/09 14:10:41;;;;;;;8.52;2.97;;;;;;;;;;5047102;28;20479;-85
2023/06/09 14:13:06;;;;;;;5.60;3.00;;;;;;;;;;5047274;28;20041;-85
2023/06/09 14:15:32;;;;;;;3.67;2.75;;;;;;;;;;5049988;28;20069;-85
2023/06/09 14:17:58;;;;;;;4.68;2.90;;;;;;;;;;5060486;28;20096;-84
2023/06/09 14:20:26;;;;;;;5.57;3.05;;;;;;;;;;5051930;28;20045;-83
2023/06/09 14:22:52;;;;;;;7.38;2.88;;;;;;;;;;5029814;28;20037;-83
2023/06/09 14:25:18;;;;;;;5.75;2.97;;;;;;;;;;5045499;28;20041;-83
2023/06/09 14:27:46;;;;;;;5.32;3.25;;;;;;;;;;5024092;28;20041;-83
2023/06/09 14:30:14;;;;;;;6.53;3.20;;;;;;;;;;5021683;28;20037;-83
2023/06/09 14:32:41;;;;;;;5.78;3.30;;;;;;;;;;5042642;28;20037;-83
2023/06/09 14:35:07;;;;;;;4.47;3.00;;;;;;;;;;5034124;28;20040;-83
2023/06/09 14:37:32;;;;;;;3.78;2.80;;;;;;;;;;5031922;28;20053;-83
2023/06/09 14:39:58;;;;;;;4.93;2.97;;;;;;;;;;5045447;28;20041;-82
2023/06/09 14:42:23;;;;;;;5.28;3.00;;;;;;;;;;5046633;28;20032;-84
2023/06/09 14:44:49;;;;;;;4.15;2.90;;;;;;;;;;5039619;28;20345;-81
2023/06/09 14:47:14;;;;;;;6.35;3.13;;;;;;;;;;5018537;28;20033;-81